Time;durP1;ratioP1;P1;durP2;ratioP2;P2;SDS_P1;SDS_P2;PMS_P1;PMS_P2;Temp;Humidity;BMP_temperature;BMP_pressure;BME280_temperature;BME280_humidity;BME280_pressure;Samples;Min_cycle;Max_cycle;Signal;HPM_P1;HPM_P2
2023/07/23 00:01:56;;;;;;;3.67;2.33;;;;;;;;;;5095127;28;20572;-40
2023/07/23 00:04:24;;;;;;;3.08;2.13;;;;;;;;;;5095224;28;20603;-41
2023/07/23 00:06:51;;;;;;;5.13;2.58;;;;;;;;;;5095086;28;20227;-41
2023/07/23 00:09:18;;;;;;;3.20;2.17;;;;;;;;;;5094764;28;20203;-40
2023/07/23 00:11:45;;;;;;;2.88;2.20;;;;;;;;;;5094810;28;20199;-39
2023/07/23 00:14:12;;;;;;;5.05;2.35;;;;;;;;;;5094754;28;20203;-41
2023/07/23 00:16:39;;;;;;;4.57;2.72;;;;;;;;;;5094781;28;20237;-41
2023/07/23 00:19:07;;;;;;;2.25;1.80;;;;;;;;;;5094346;28;20213;-42
2023/07/23 00:21:34;;;;;;;3.88;2.35;;;;;;;;;;5094729;28;20199;-39
2023/07/23 00:24:04;;;;;;;3.05;1.98;;;;;;;;;;5094423;28;20198;-39
2023/07/23 00:26:31;;;;;;;3.85;2.17;;;;;;;;;;5095168;28;20598;-40
2023/07/23 00:28:59;;;;;;;2.72;2.13;;;;;;;;;;5076345;28;20594;-38
2023/07/23 00:31:27;;;;;;;2.60;2.15;;;;;;;;;;5094361;28;20202;-39
2023/07/23 00:33:55;;;;;;;5.50;2.20;;;;;;;;;;5094728;28;20203;-40
2023/07/23 00:36:22;;;;;;;3.72;2.33;;;;;;;;;;5076147;28;20209;-40
2023/07/23 00:38:49;;;;;;;3.45;2.10;;;;;;;;;;5076473;28;20213;-39
2023/07/23 00:41:17;;;;;;;3.28;2.10;;;;;;;;;;5094070;28;20202;-39
2023/07/23 00:43:44;;;;;;;11.93;2.60;;;;;;;;;;5076491;28;20207;-42
2023/07/23 00:46:12;;;;;;;3.42;2.20;;;;;;;;;;5093996;28;20595;-39
2023/07/23 00:48:39;;;;;;;5.78;2.47;;;;;;;;;;5075912;28;20279;-39
2023/07/23 00:51:06;;;;;;;2.38;1.90;;;;;;;;;;5093895;28;20194;-39
2023/07/23 00:53:34;;;;;;;2.95;2.00;;;;;;;;;;5076131;28;20199;-42
2023/07/23 00:56:02;;;;;;;3.80;2.00;;;;;;;;;;5076085;28;20202;-41
2023/07/23 00:58:32;;;;;;;4.07;2.10;;;;;;;;;;5060408;28;20251;-42
2023/07/23 01:01:00;;;;;;;3.45;1.92;;;;;;;;;;5093803;28;20281;-39
2023/07/23 01:03:28;;;;;;;4.72;2.55;;;;;;;;;;5075654;28;20252;-41
2023/07/23 01:05:59;;;;;;;3.38;2.40;;;;;;;;;;5084476;28;20199;-39
2023/07/23 01:08:27;;;;;;;3.50;2.25;;;;;;;;;;5095533;28;20709;-38
2023/07/23 01:10:54;;;;;;;3.95;2.50;;;;;;;;;;5113917;28;20206;-40
2023/07/23 01:13:22;;;;;;;5.30;2.13;;;;;;;;;;5095465;28;20624;-39
2023/07/23 01:15:50;;;;;;;2.92;2.40;;;;;;;;;;5096038;28;20251;-39
2023/07/23 01:18:17;;;;;;;2.80;2.40;;;;;;;;;;5095225;28;20218;-40
2023/07/23 01:20:44;;;;;;;4.55;2.80;;;;;;;;;;5095800;28;20230;-42
2023/07/23 01:23:11;;;;;;;7.93;2.22;;;;;;;;;;5113739;28;20762;-45
2023/07/23 01:25:39;;;;;;;2.53;2.20;;;;;;;;;;5114324;28;20202;-39
2023/07/23 01:28:07;;;;;;;4.18;2.78;;;;;;;;;;5113738;28;20229;-40
2023/07/23 01:30:34;;;;;;;3.35;2.42;;;;;;;;;;5095613;28;20206;-43
2023/07/23 01:33:04;;;;;;;3.67;2.22;;;;;;;;;;5113601;28;20626;-40
2023/07/23 01:35:31;;;;;;;3.42;2.42;;;;;;;;;;5096373;28;20197;-40
2023/07/23 01:37:58;;;;;;;4.93;2.28;;;;;;;;;;5095387;28;20662;-43
2023/07/23 01:40:26;;;;;;;3.53;2.40;;;;;;;;;;5078899;28;20658;-40
2023/07/23 01:42:53;;;;;;;3.42;2.47;;;;;;;;;;5113489;28;20198;-41
2023/07/23 01:45:20;;;;;;;3.15;2.38;;;;;;;;;;5095278;28;20563;-41
2023/07/23 01:47:48;;;;;;;4.05;2.60;;;;;;;;;;5113612;28;20230;-40
2023/07/23 01:50:15;;;;;;;3.85;2.63;;;;;;;;;;5095302;28;20197;-41
2023/07/23 01:52:42;;;;;;;4.22;2.65;;;;;;;;;;5113817;28;20210;-39
2023/07/23 01:55:09;;;;;;;4.75;2.92;;;;;;;;;;5113510;28;20222;-41
2023/07/23 01:57:37;;;;;;;3.40;2.60;;;;;;;;;;5113544;28;20212;-41
2023/07/23 02:00:05;;;;;;;5.28;2.47;;;;;;;;;;5095092;28;21011;-41
2023/07/23 02:02:39;;;;;;;3.33;2.65;;;;;;;;;;5114023;28;20543;-41
2023/07/23 02:05:06;;;;;;;4.40;2.47;;;;;;;;;;5095303;28;20313;-40
2023/07/23 02:07:33;;;;;;;4.72;2.65;;;;;;;;;;5094988;28;20784;-41
2023/07/23 02:10:00;;;;;;;4.97;2.72;;;;;;;;;;5113037;28;20259;-43
2023/07/23 02:12:28;;;;;;;3.97;2.72;;;;;;;;;;5094730;28;20531;-39
2023/07/23 02:14:55;;;;;;;3.50;2.50;;;;;;;;;;5094580;28;20208;-39
2023/07/23 02:17:22;;;;;;;4.15;2.63;;;;;;;;;;5095261;28;20266;-41
2023/07/23 02:19:49;;;;;;;5.68;2.60;;;;;;;;;;5112970;28;20588;-39
2023/07/23 02:22:17;;;;;;;3.50;2.40;;;;;;;;;;5116973;28;20226;-40
2023/07/23 02:24:44;;;;;;;6.53;2.42;;;;;;;;;;5098650;28;20212;-39
2023/07/23 02:27:11;;;;;;;5.07;2.35;;;;;;;;;;5099077;28;20609;-40
2023/07/23 02:29:38;;;;;;;2.70;2.20;;;;;;;;;;5099043;28;20646;-41
2023/07/23 02:32:06;;;;;;;3.30;2.38;;;;;;;;;;5099047;28;20202;-42
2023/07/23 02:34:33;;;;;;;5.00;2.42;;;;;;;;;;5116475;28;20297;-41
2023/07/23 02:37:01;;;;;;;2.90;2.20;;;;;;;;;;5116588;28;20209;-42
2023/07/23 02:39:28;;;;;;;2.65;2.10;;;;;;;;;;5098318;28;20666;-39
2023/07/23 02:41:55;;;;;;;7.10;2.70;;;;;;;;;;5116940;28;20198;-39
2023/07/23 02:44:22;;;;;;;4.47;2.70;;;;;;;;;;5116600;28;20217;-42
2023/07/23 02:46:50;;;;;;;3.28;2.53;;;;;;;;;;5098417;28;20209;-42
2023/07/23 02:49:17;;;;;;;4.28;2.78;;;;;;;;;;5098171;28;20307;-42
2023/07/23 02:51:44;;;;;;;2.78;2.13;;;;;;;;;;5116885;28;20198;-39
2023/07/23 02:54:11;;;;;;;4.65;2.15;;;;;;;;;;5116407;28;20218;-39
2023/07/23 02:56:38;;;;;;;3.40;2.42;;;;;;;;;;5116413;28;20537;-40
2023/07/23 02:59:05;;;;;;;5.03;2.10;;;;;;;;;;5116334;28;20292;-39
2023/07/23 03:01:33;;;;;;;3.40;2.55;;;;;;;;;;5098236;28;20214;-39
2023/07/23 03:04:00;;;;;;;3.25;2.50;;;;;;;;;;5116241;28;20655;-39
2023/07/23 03:06:27;;;;;;;4.07;2.95;;;;;;;;;;5097380;28;20190;-39
2023/07/23 03:08:54;;;;;;;3.25;2.40;;;;;;;;;;5097544;28;20230;-41
2023/07/23 03:11:22;;;;;;;5.80;3.05;;;;;;;;;;5115483;28;20202;-41
2023/07/23 03:13:49;;;;;;;3.05;2.25;;;;;;;;;;5116176;28;20209;-39
2023/07/23 03:16:16;;;;;;;5.10;2.78;;;;;;;;;;5115956;28;20205;-42
2023/07/23 03:18:43;;;;;;;3.53;2.90;;;;;;;;;;5097940;28;20194;-41
2023/07/23 03:21:10;;;;;;;4.68;2.88;;;;;;;;;;5115569;28;20242;-39
2023/07/23 03:23:37;;;;;;;3.78;2.47;;;;;;;;;;5115959;28;20202;-39
2023/07/23 03:26:05;;;;;;;3.78;2.58;;;;;;;;;;5097580;28;20582;-42
2023/07/23 03:28:32;;;;;;;3.03;2.50;;;;;;;;;;5115670;28;20226;-40
2023/07/23 03:30:59;;;;;;;5.57;2.55;;;;;;;;;;5116091;28;20202;-40
2023/07/23 03:33:27;;;;;;;4.55;2.58;;;;;;;;;;5096675;28;20606;-39
2023/07/23 03:35:54;;;;;;;3.78;2.80;;;;;;;;;;5097362;28;20252;-39
2023/07/23 03:38:21;;;;;;;4.32;3.00;;;;;;;;;;5115882;28;20278;-42
2023/07/23 03:40:48;;;;;;;4.93;2.50;;;;;;;;;;5063455;28;20217;-40
2023/07/23 03:43:16;;;;;;;5.47;3.03;;;;;;;;;;5115511;28;20247;-39
2023/07/23 03:45:43;;;;;;;3.03;2.58;;;;;;;;;;5097662;28;20202;-39
2023/07/23 03:48:10;;;;;;;3.30;2.45;;;;;;;;;;5115029;28;20266;-42
2023/07/23 03:50:38;;;;;;;4.10;2.70;;;;;;;;;;5115475;28;20305;-38
2023/07/23 03:53:05;;;;;;;8.50;2.85;;;;;;;;;;5115469;28;20766;-42
2023/07/23 03:55:33;;;;;;;5.38;3.13;;;;;;;;;;5097038;28;20201;-39
2023/07/23 03:58:00;;;;;;;3.33;2.30;;;;;;;;;;5097284;28;20559;-38
2023/07/23 04:00:27;;;;;;;5.38;3.28;;;;;;;;;;5115280;28;20289;-39
2023/07/23 04:02:54;;;;;;;3.63;2.67;;;;;;;;;;5115330;28;20548;-39
2023/07/23 04:05:21;;;;;;;12.32;3.53;;;;;;;;;;5115349;28;20206;-39
2023/07/23 04:07:49;;;;;;;3.88;2.88;;;;;;;;;;5096621;28;20829;-39
2023/07/23 04:10:16;;;;;;;4.78;3.03;;;;;;;;;;5096886;28;20730;-38
2023/07/23 04:12:43;;;;;;;4.22;2.72;;;;;;;;;;5114812;28;20206;-36
2023/07/23 04:15:13;;;;;;;3.65;2.58;;;;;;;;;;5115028;28;20202;-40
2023/07/23 04:17:40;;;;;;;4.63;2.67;;;;;;;;;;5096727;28;20564;-40
2023/07/23 04:20:08;;;;;;;4.68;3.33;;;;;;;;;;5115034;28;20233;-40
2023/07/23 04:22:35;;;;;;;3.40;2.60;;;;;;;;;;5115059;28;20681;-41
2023/07/23 04:25:03;;;;;;;4.15;2.83;;;;;;;;;;5096291;28;20201;-42
2023/07/23 04:27:32;;;;;;;4.90;2.70;;;;;;;;;;5096686;28;20250;-40
2023/07/23 04:29:59;;;;;;;4.72;3.03;;;;;;;;;;5096503;28;20662;-39
2023/07/23 04:32:27;;;;;;;4.47;2.78;;;;;;;;;;5090213;28;20281;-44
2023/07/23 04:34:54;;;;;;;3.65;2.83;;;;;;;;;;5103342;28;20297;-43
2023/07/23 04:37:21;;;;;;;4.55;2.90;;;;;;;;;;5104466;28;20194;-40
2023/07/23 04:39:48;;;;;;;4.20;2.90;;;;;;;;;;5104400;28;20516;-40
2023/07/23 04:42:15;;;;;;;4.20;2.90;;;;;;;;;;5100935;28;20202;-43
2023/07/23 04:44:42;;;;;;;4.93;3.03;;;;;;;;;;5105529;28;20293;-41
2023/07/23 04:47:10;;;;;;;4.28;2.78;;;;;;;;;;5098668;28;20235;-42
2023/07/23 04:49:37;;;;;;;4.60;2.92;;;;;;;;;;5094003;28;20631;-41
2023/07/23 04:52:05;;;;;;;3.38;2.30;;;;;;;;;;5099552;28;20217;-42
2023/07/23 04:54:32;;;;;;;5.13;2.50;;;;;;;;;;5095361;28;20206;-40
2023/07/23 04:56:59;;;;;;;4.07;2.70;;;;;;;;;;5094077;28;20201;-41
2023/07/23 04:59:26;;;;;;;4.97;2.72;;;;;;;;;;5096421;28;20284;-40
2023/07/23 05:01:54;;;;;;;3.90;2.75;;;;;;;;;;5100861;28;20227;-42
2023/07/23 05:04:21;;;;;;;4.95;2.50;;;;;;;;;;5102349;28;20714;-40
2023/07/23 05:06:48;;;;;;;3.40;2.65;;;;;;;;;;5095593;28;20237;-43
2023/07/23 05:09:15;;;;;;;5.47;3.20;;;;;;;;;;5103138;28;20320;-41
2023/07/23 05:11:43;;;;;;;4.68;3.00;;;;;;;;;;5098691;28;20223;-42
2023/07/23 05:14:10;;;;;;;4.47;3.00;;;;;;;;;;5097664;28;20279;-42
2023/07/23 05:16:37;;;;;;;4.35;3.17;;;;;;;;;;5102496;28;20586;-41
2023/07/23 05:19:04;;;;;;;6.97;3.00;;;;;;;;;;5100753;28;20226;-43
2023/07/23 05:21:34;;;;;;;3.25;2.60;;;;;;;;;;5101173;28;20221;-42
2023/07/23 05:24:02;;;;;;;5.10;3.28;;;;;;;;;;5102329;28;20241;-41
2023/07/23 05:26:30;;;;;;;4.38;3.10;;;;;;;;;;5105462;28;20218;-40
2023/07/23 05:28:57;;;;;;;3.17;2.72;;;;;;;;;;5092082;28;20250;-39
2023/07/23 05:31:24;;;;;;;3.80;2.40;;;;;;;;;;5093064;28;20226;-40
2023/07/23 05:33:52;;;;;;;3.22;2.45;;;;;;;;;;5092535;28;20318;-39
2023/07/23 05:36:19;;;;;;;4.65;2.63;;;;;;;;;;5079984;28;20689;-38
2023/07/23 05:38:46;;;;;;;3.40;2.53;;;;;;;;;;5097457;28;20230;-39
2023/07/23 05:41:13;;;;;;;4.25;2.83;;;;;;;;;;5102103;28;20233;-40
2023/07/23 05:43:40;;;;;;;4.53;2.97;;;;;;;;;;5102343;28;20320;-39
2023/07/23 05:46:08;;;;;;;3.55;2.47;;;;;;;;;;5103239;28;20218;-39
2023/07/23 05:48:35;;;;;;;8.45;3.40;;;;;;;;;;5100191;28;20307;-39
2023/07/23 05:51:02;;;;;;;5.63;2.72;;;;;;;;;;5099107;28;20214;-39
2023/07/23 05:53:29;;;;;;;5.70;3.95;;;;;;;;;;5074188;28;20305;-40
2023/07/23 05:55:57;;;;;;;4.22;2.80;;;;;;;;;;5094683;28;20702;-39
2023/07/23 05:58:27;;;;;;;5.53;2.80;;;;;;;;;;5095864;28;20318;-43
2023/07/23 06:00:54;;;;;;;4.80;2.85;;;;;;;;;;5098018;28;20218;-39
2023/07/23 06:03:21;;;;;;;4.57;2.90;;;;;;;;;;5117578;28;20230;-39
2023/07/23 06:05:49;;;;;;;4.43;2.75;;;;;;;;;;5097326;28;20573;-39
2023/07/23 06:08:16;;;;;;;3.53;2.80;;;;;;;;;;5096845;28;20226;-38
2023/07/23 06:10:43;;;;;;;4.25;2.45;;;;;;;;;;5095992;28;20635;-40
2023/07/23 06:13:10;;;;;;;3.17;2.35;;;;;;;;;;5096378;28;20287;-40
2023/07/23 06:15:38;;;;;;;5.78;2.60;;;;;;;;;;5110801;28;20218;-39
2023/07/23 06:18:05;;;;;;;4.05;2.22;;;;;;;;;;5110280;28;20283;-39
2023/07/23 06:20:32;;;;;;;2.45;1.92;;;;;;;;;;5104223;28;20683;-40
2023/07/23 06:23:00;;;;;;;5.88;1.90;;;;;;;;;;5096448;28;20298;-39
2023/07/23 06:25:27;;;;;;;3.10;2.28;;;;;;;;;;5095853;28;20230;-40
2023/07/23 06:27:54;;;;;;;4.68;2.75;;;;;;;;;;5095803;28;20706;-40
2023/07/23 06:30:22;;;;;;;3.47;2.30;;;;;;;;;;5096226;28;20268;-40
2023/07/23 06:32:49;;;;;;;4.40;2.53;;;;;;;;;;5096142;28;20242;-38
2023/07/23 06:35:16;;;;;;;3.70;2.28;;;;;;;;;;5095782;28;20297;-40
2023/07/23 06:37:43;;;;;;;2.65;1.98;;;;;;;;;;5095882;28;20222;-40
2023/07/23 06:40:11;;;;;;;4.07;2.08;;;;;;;;;;5095531;28;20227;-40
2023/07/23 06:42:38;;;;;;;3.10;2.20;;;;;;;;;;5094759;28;20675;-39
2023/07/23 06:45:05;;;;;;;4.90;2.42;;;;;;;;;;5095390;28;20230;-42
2023/07/23 06:47:32;;;;;;;5.88;2.20;;;;;;;;;;5095135;28;20207;-42
2023/07/23 06:50:00;;;;;;;4.13;2.25;;;;;;;;;;5095415;28;20250;-40
2023/07/23 06:52:27;;;;;;;2.67;1.70;;;;;;;;;;5095677;28;20720;-40
2023/07/23 06:54:55;;;;;;;3.33;2.25;;;;;;;;;;5095557;28;20218;-39
2023/07/23 06:57:24;;;;;;;2.65;1.55;;;;;;;;;;5095553;28;20227;-39
2023/07/23 06:59:52;;;;;;;4.10;1.75;;;;;;;;;;5095376;28;20226;-39
2023/07/23 07:02:19;;;;;;;7.90;1.95;;;;;;;;;;5095410;28;20225;-38
2023/07/23 07:04:46;;;;;;;2.10;1.55;;;;;;;;;;5094758;28;20222;-40
2023/07/23 07:07:13;;;;;;;2.75;1.67;;;;;;;;;;5094224;28;20223;-40
2023/07/23 07:09:40;;;;;;;2.58;1.73;;;;;;;;;;5093411;28;20779;-39
2023/07/23 07:12:08;;;;;;;3.25;1.88;;;;;;;;;;5093372;28;20230;-40
2023/07/23 07:14:35;;;;;;;2.72;2.00;;;;;;;;;;5092797;28;20305;-41
2023/07/23 07:17:02;;;;;;;2.92;1.80;;;;;;;;;;5093517;28;20577;-40
2023/07/23 07:19:33;;;;;;;3.88;1.90;;;;;;;;;;5075412;28;20645;-40
2023/07/23 07:22:00;;;;;;;2.70;1.85;;;;;;;;;;5093113;28;20699;-40
2023/07/23 07:24:27;;;;;;;2.00;1.50;;;;;;;;;;5093959;28;20247;-40
2023/07/23 07:26:54;;;;;;;4.55;1.98;;;;;;;;;;5094166;28;20242;-39
2023/07/23 07:29:22;;;;;;;3.55;1.73;;;;;;;;;;5094850;28;20232;-39
2023/07/23 07:31:51;;;;;;;3.05;2.08;;;;;;;;;;5094695;28;20218;-39
2023/07/23 07:34:18;;;;;;;3.97;1.75;;;;;;;;;;5094950;28;20218;-40
2023/07/23 07:36:45;;;;;;;3.67;1.85;;;;;;;;;;5094367;28;20233;-39
2023/07/23 07:39:13;;;;;;;3.28;1.75;;;;;;;;;;5094558;28;20301;-39
2023/07/23 07:41:39;;;;;;;1.95;1.48;;;;;;;;;;5094348;28;20707;-39
2023/07/23 07:44:07;;;;;;;2.90;1.60;;;;;;;;;;5095108;28;20227;-39
2023/07/23 07:46:34;;;;;;;3.88;2.13;;;;;;;;;;5095590;28;20202;-39
2023/07/23 07:49:02;;;;;;;3.15;2.25;;;;;;;;;;5095434;28;20222;-39
2023/07/23 07:51:29;;;;;;;2.50;1.58;;;;;;;;;;5059846;28;20611;-39
2023/07/23 07:53:57;;;;;;;2.45;1.45;;;;;;;;;;5095183;28;20206;-39
2023/07/23 07:56:24;;;;;;;2.90;1.60;;;;;;;;;;5095102;28;20614;-39
2023/07/23 07:58:52;;;;;;;2.15;1.30;;;;;;;;;;5095282;28;20203;-40
2023/07/23 08:01:19;;;;;;;4.35;1.67;;;;;;;;;;5095282;28;20282;-39
2023/07/23 08:03:46;;;;;;;3.10;1.67;;;;;;;;;;5095076;28;20235;-39
2023/07/23 08:06:14;;;;;;;5.05;1.88;;;;;;;;;;5094888;28;20226;-39
2023/07/23 08:08:43;;;;;;;3.20;2.10;;;;;;;;;;5077068;28;20210;-39
2023/07/23 08:11:10;;;;;;;2.42;1.77;;;;;;;;;;5095300;28;20202;-39
2023/07/23 08:13:38;;;;;;;4.57;1.70;;;;;;;;;;5094839;28;20659;-39
2023/07/23 08:16:06;;;;;;;3.28;1.73;;;;;;;;;;5094947;28;20297;-41
2023/07/23 08:18:34;;;;;;;4.32;1.55;;;;;;;;;;5094416;28;20211;-40
2023/07/23 08:21:02;;;;;;;5.25;1.75;;;;;;;;;;5094457;28;20729;-39
2023/07/23 08:23:29;;;;;;;4.22;1.85;;;;;;;;;;5094863;28;20203;-38
2023/07/23 08:25:58;;;;;;;2.08;1.50;;;;;;;;;;5094811;28;20210;-39
2023/07/23 08:28:29;;;;;;;2.50;1.50;;;;;;;;;;5094607;28;20551;-39
2023/07/23 08:30:57;;;;;;;2.13;1.50;;;;;;;;;;5094505;28;20222;-39
2023/07/23 08:33:31;;;;;;;2.42;1.48;;;;;;;;;;5094556;28;20562;-39
2023/07/23 08:36:00;;;;;;;3.13;1.58;;;;;;;;;;5094401;28;20708;-39
2023/07/23 08:38:28;;;;;;;3.30;1.48;;;;;;;;;;5094511;28;20205;-39
2023/07/23 08:40:58;;;;;;;2.22;1.65;;;;;;;;;;5094594;28;20215;-39
2023/07/23 08:44:00;;;;;;;2.70;1.23;;;;;;;;;;5094390;28;20203;-39
2023/07/23 08:46:27;;;;;;;3.17;1.70;;;;;;;;;;5076494;28;20210;-39
2023/07/23 08:49:04;;;;;;;2.22;1.13;;;;;;;;;;5076388;28;20295;-39
2023/07/23 08:51:45;;;;;;;1.67;1.42;;;;;;;;;;5094225;28;20198;-40
2023/07/23 08:54:15;;;;;;;2.10;1.30;;;;;;;;;;5094061;28;20202;-39
2023/07/23 08:56:43;;;;;;;2.17;1.40;;;;;;;;;;5093921;28;20256;-39
2023/07/23 08:59:12;;;;;;;2.67;1.60;;;;;;;;;;5094260;28;20199;-39
2023/07/23 09:01:40;;;;;;;2.75;1.15;;;;;;;;;;5093923;28;20229;-39
2023/07/23 09:04:11;;;;;;;2.08;1.50;;;;;;;;;;5094226;28;20215;-39
2023/07/23 09:06:41;;;;;;;2.58;1.60;;;;;;;;;;5094193;28;20207;-39
2023/07/23 09:09:09;;;;;;;2.58;1.40;;;;;;;;;;5093722;28;20222;-39
2023/07/23 09:11:37;;;;;;;2.30;1.40;;;;;;;;;;5093734;28;20206;-39
2023/07/23 09:14:11;;;;;;;2.88;1.30;;;;;;;;;;5091262;28;20702;-42
2023/07/23 09:16:43;;;;;;;1.65;1.40;;;;;;;;;;5092889;28;20301;-42
2023/07/23 09:19:12;;;;;;;2.45;1.50;;;;;;;;;;5096703;28;20693;-42
2023/07/23 09:21:41;;;;;;;4.50;1.40;;;;;;;;;;5106678;28;20226;-41
2023/07/23 09:24:12;;;;;;;2.33;1.42;;;;;;;;;;5093583;28;20233;-42
2023/07/23 09:26:40;;;;;;;2.47;1.83;;;;;;;;;;5101160;28;20221;-42
2023/07/23 09:29:09;;;;;;;2.25;1.27;;;;;;;;;;5099831;28;20233;-41
2023/07/23 09:31:37;;;;;;;3.28;1.38;;;;;;;;;;5091643;28;20690;-40
2023/07/23 09:34:04;;;;;;;2.55;1.30;;;;;;;;;;5094939;28;20231;-41
2023/07/23 09:36:31;;;;;;;1.52;1.15;;;;;;;;;;5097236;28;20226;-41
2023/07/23 09:38:59;;;;;;;3.67;1.15;;;;;;;;;;5099358;28;20229;-43
2023/07/23 09:41:31;;;;;;;1.77;1.20;;;;;;;;;;5096558;28;20230;-40
2023/07/23 09:44:01;;;;;;;1.80;1.30;;;;;;;;;;5099584;28;20574;-39
2023/07/23 09:46:30;;;;;;;3.55;1.30;;;;;;;;;;5105042;28;20746;-40
2023/07/23 09:48:57;;;;;;;2.58;1.63;;;;;;;;;;5092196;28;20694;-40
2023/07/23 09:51:25;;;;;;;2.60;1.50;;;;;;;;;;5092442;28;20229;-41
2023/07/23 09:53:53;;;;;;;2.28;1.20;;;;;;;;;;5091438;28;20687;-39
2023/07/23 09:56:22;;;;;;;1.33;1.13;;;;;;;;;;5092059;28;20586;-42
2023/07/23 09:58:53;;;;;;;2.10;1.50;;;;;;;;;;5091409;28;20227;-39
2023/07/23 10:01:20;;;;;;;1.95;1.08;;;;;;;;;;5099986;28;20222;-42
2023/07/23 10:03:48;;;;;;;2.65;1.50;;;;;;;;;;5092724;28;20234;-40
2023/07/23 10:06:20;;;;;;;2.10;1.27;;;;;;;;;;5104839;28;20228;-40
2023/07/23 10:08:48;;;;;;;2.28;1.27;;;;;;;;;;5093334;28;20225;-42
2023/07/23 10:11:17;;;;;;;3.58;1.40;;;;;;;;;;5090839;28;20706;-41
2023/07/23 10:13:50;;;;;;;6.88;1.52;;;;;;;;;;5091147;28;20219;-41
2023/07/23 10:16:25;;;;;;;2.45;1.42;;;;;;;;;;5091930;28;20280;-40
2023/07/23 10:18:55;;;;;;;2.17;1.60;;;;;;;;;;5074956;28;20701;-40
2023/07/23 10:21:22;;;;;;;4.07;2.40;;;;;;;;;;5091337;28;20694;-42
2023/07/23 10:23:55;;;;;;;1.80;1.40;;;;;;;;;;5071507;28;20239;-40
2023/07/23 10:26:31;;;;;;;1.83;1.15;;;;;;;;;;5091515;28;20226;-42
2023/07/23 10:29:18;;;;;;;1.60;1.30;;;;;;;;;;5074897;28;20725;-42
2023/07/23 10:31:45;;;;;;;4.53;1.33;;;;;;;;;;5091860;28;20226;-40
2023/07/23 10:34:22;;;;;;;5.63;1.38;;;;;;;;;;5103405;28;20233;-43
2023/07/23 10:37:09;;;;;;;2.72;1.63;;;;;;;;;;5112716;28;20221;-41
2023/07/23 10:39:45;;;;;;;1.55;1.40;;;;;;;;;;5106818;28;20237;-43
2023/07/23 10:42:27;;;;;;;1.55;1.35;;;;;;;;;;5105901;28;20332;-40
2023/07/23 10:45:17;;;;;;;2.13;1.30;;;;;;;;;;5098841;28;20642;-41
2023/07/23 10:48:00;;;;;;;2.80;1.20;;;;;;;;;;5116351;28;20632;-41
2023/07/23 10:50:30;;;;;;;1.50;1.20;;;;;;;;;;5098522;28;20710;-40
2023/07/23 10:53:04;;;;;;;1.90;1.13;;;;;;;;;;5109269;28;20592;-40
2023/07/23 10:55:46;;;;;;;2.75;1.60;;;;;;;;;;5112381;28;20686;-40
2023/07/23 10:58:15;;;;;;;1.98;1.40;;;;;;;;;;5111383;28;20230;-38
2023/07/23 11:00:47;;;;;;;3.28;1.58;;;;;;;;;;5095408;28;20231;-40
2023/07/23 11:03:18;;;;;;;2.05;1.60;;;;;;;;;;5106852;28;20233;-40
2023/07/23 11:05:46;;;;;;;2.38;1.40;;;;;;;;;;5103873;28;20214;-40
2023/07/23 11:08:20;;;;;;;2.35;1.60;;;;;;;;;;5096831;28;20262;-40
2023/07/23 11:10:55;;;;;;;2.22;1.60;;;;;;;;;;5094867;28;20700;-40
2023/07/23 11:13:28;;;;;;;2.63;1.40;;;;;;;;;;5104008;28;20222;-40
2023/07/23 11:15:56;;;;;;;3.35;2.05;;;;;;;;;;5112700;28;20214;-41
2023/07/23 11:18:23;;;;;;;2.15;1.50;;;;;;;;;;5097823;28;20288;-40
2023/07/23 11:20:52;;;;;;;2.75;1.35;;;;;;;;;;5106508;28;20233;-41
2023/07/23 11:23:25;;;;;;;2.47;1.45;;;;;;;;;;5108781;28;20291;-41
2023/07/23 11:25:52;;;;;;;5.10;1.30;;;;;;;;;;5094918;28;20227;-41
2023/07/23 11:28:21;;;;;;;3.75;1.63;;;;;;;;;;5100101;28;20301;-41
2023/07/23 11:30:50;;;;;;;2.72;1.38;;;;;;;;;;5100104;28;20234;-41
2023/07/23 11:33:17;;;;;;;2.90;1.38;;;;;;;;;;5095307;28;20226;-40
2023/07/23 11:35:45;;;;;;;1.48;1.20;;;;;;;;;;5099977;28;20271;-41
2023/07/23 11:38:11;;;;;;;2.67;1.70;;;;;;;;;;5084595;28;20260;-40
2023/07/23 11:40:39;;;;;;;5.68;1.50;;;;;;;;;;5103343;28;20579;-41
2023/07/23 11:43:07;;;;;;;2.75;1.60;;;;;;;;;;5104338;28;20218;-41
2023/07/23 11:45:45;;;;;;;2.95;1.52;;;;;;;;;;5102261;28;20503;-40
2023/07/23 11:48:17;;;;;;;14.00;8.73;;;;;;;;;;5114762;28;20337;-42
2023/07/23 11:50:49;;;;;;;2.53;1.63;;;;;;;;;;5114740;28;20237;-41
2023/07/23 11:53:35;;;;;;;3.22;2.60;;;;;;;;;;5107319;28;20218;-41
2023/07/23 11:56:10;;;;;;;4.70;2.20;;;;;;;;;;5104208;28;20223;-42
2023/07/23 11:58:38;;;;;;;14.98;9.77;;;;;;;;;;5101695;28;20302;-41
2023/07/23 12:01:06;;;;;;;3.17;2.28;;;;;;;;;;5105922;28;20218;-41
2023/07/23 12:03:41;;;;;;;2.08;1.33;;;;;;;;;;5114809;28;20304;-41
2023/07/23 12:06:11;;;;;;;1.83;1.42;;;;;;;;;;5103014;28;20215;-40
2023/07/23 12:08:38;;;;;;;4.18;1.55;;;;;;;;;;5100403;28;20226;-41
2023/07/23 12:11:10;;;;;;;2.65;1.50;;;;;;;;;;5100605;28;20274;-40
2023/07/23 12:13:42;;;;;;;6.25;1.80;;;;;;;;;;5100270;28;20588;-41
2023/07/23 12:16:14;;;;;;;2.83;1.60;;;;;;;;;;5098074;28;20226;-41
2023/07/23 12:18:46;;;;;;;2.35;1.50;;;;;;;;;;5101171;28;20587;-41
2023/07/23 12:21:20;;;;;;;3.40;1.90;;;;;;;;;;5107170;28;20709;-41
2023/07/23 12:23:47;;;;;;;2.20;1.50;;;;;;;;;;5102180;28;20197;-41
2023/07/23 12:26:15;;;;;;;6.63;3.63;;;;;;;;;;5101035;28;20195;-43
2023/07/23 12:28:42;;;;;;;45.60;28.50;;;;;;;;;;5103117;28;20190;-40
2023/07/23 12:31:09;;;;;;;14.27;9.20;;;;;;;;;;5096724;28;20226;-40
2023/07/23 12:33:36;;;;;;;31.55;19.77;;;;;;;;;;5099558;28;20263;-41
2023/07/23 12:36:04;;;;;;;36.92;19.48;;;;;;;;;;5103751;28;20206;-40
2023/07/23 12:38:31;;;;;;;8.93;6.15;;;;;;;;;;5100191;28;20199;-39
2023/07/23 12:40:58;;;;;;;36.47;24.70;;;;;;;;;;5103969;28;20256;-40
2023/07/23 12:43:25;;;;;;;10.73;7.18;;;;;;;;;;5111572;28;20190;-40
2023/07/23 12:45:53;;;;;;;6.45;4.50;;;;;;;;;;5105754;28;20198;-39
2023/07/23 12:48:20;;;;;;;19.95;14.65;;;;;;;;;;5093994;28;20190;-40
2023/07/23 12:50:47;;;;;;;88.97;54.58;;;;;;;;;;5093942;28;20226;-39
2023/07/23 12:53:14;;;;;;;74.68;44.63;;;;;;;;;;5093311;28;20574;-42
2023/07/23 12:55:41;;;;;;;12.88;8.18;;;;;;;;;;5093887;28;20720;-39
2023/07/23 12:58:08;;;;;;;22.45;12.07;;;;;;;;;;5093716;28;20293;-40
2023/07/23 13:00:36;;;;;;;85.70;51.17;;;;;;;;;;5093959;28;20604;-38
2023/07/23 13:03:03;;;;;;;23.88;17.38;;;;;;;;;;5093690;28;20191;-39
2023/07/23 13:05:34;;;;;;;19.45;13.70;;;;;;;;;;5092793;28;20255;-39
2023/07/23 13:08:01;;;;;;;15.55;10.05;;;;;;;;;;5093192;28;20210;-39
2023/07/23 13:10:28;;;;;;;11.98;8.35;;;;;;;;;;5102747;28;20271;-39
2023/07/23 13:12:56;;;;;;;32.88;21.48;;;;;;;;;;5095478;28;20643;-39
2023/07/23 13:15:23;;;;;;;14.15;11.07;;;;;;;;;;5102738;28;20205;-40
2023/07/23 13:17:50;;;;;;;24.73;15.07;;;;;;;;;;5103696;28;20190;-40
2023/07/23 13:20:18;;;;;;;23.60;16.00;;;;;;;;;;5100900;28;20236;-41
2023/07/23 13:22:45;;;;;;;53.97;37.22;;;;;;;;;;5099924;28;20201;-39
2023/07/23 13:25:12;;;;;;;24.38;16.70;;;;;;;;;;5099012;28;20210;-40
2023/07/23 13:27:40;;;;;;;41.13;27.00;;;;;;;;;;5101896;28;20194;-45
2023/07/23 13:30:07;;;;;;;48.97;33.00;;;;;;;;;;5106630;28;20247;-43
2023/07/23 13:32:34;;;;;;;81.35;52.42;;;;;;;;;;5100326;28;20639;-44
2023/07/23 13:35:02;;;;;;;32.55;19.98;;;;;;;;;;5100507;28;20198;-43
2023/07/23 13:37:29;;;;;;;6.53;3.78;;;;;;;;;;5100913;28;20201;-41
2023/07/23 13:39:56;;;;;;;5.35;3.67;;;;;;;;;;5102432;28;20195;-39
2023/07/23 13:42:23;;;;;;;3.95;2.30;;;;;;;;;;5103349;28;20195;-39
2023/07/23 13:44:51;;;;;;;2.58;1.65;;;;;;;;;;5100944;28;20195;-41
2023/07/23 13:47:18;;;;;;;2.85;2.10;;;;;;;;;;5099864;28;20224;-47
2023/07/23 13:49:46;;;;;;;2.47;1.75;;;;;;;;;;5102446;28;20719;-41
2023/07/23 13:52:13;;;;;;;3.42;1.73;;;;;;;;;;5100788;28;20267;-40
2023/07/23 13:54:42;;;;;;;2.50;1.85;;;;;;;;;;5102851;28;20198;-40
2023/07/23 13:57:09;;;;;;;2.80;1.90;;;;;;;;;;5106575;28;20697;-41
2023/07/23 13:59:36;;;;;;;5.53;2.10;;;;;;;;;;5110561;28;20213;-42
2023/07/23 14:02:03;;;;;;;3.65;2.05;;;;;;;;;;5091300;28;20264;-42
2023/07/23 14:04:31;;;;;;;31.65;19.10;;;;;;;;;;5092290;28;20566;-43
2023/07/23 14:06:58;;;;;;;13.45;8.10;;;;;;;;;;5106967;28;20281;-39
2023/07/23 14:09:25;;;;;;;9.88;5.97;;;;;;;;;;5113153;28;20206;-41
2023/07/23 14:11:52;;;;;;;8.70;5.00;;;;;;;;;;5113109;28;20244;-38
2023/07/23 14:14:19;;;;;;;5.82;2.85;;;;;;;;;;5094502;28;20227;-39
2023/07/23 14:16:46;;;;;;;4.00;3.00;;;;;;;;;;5094314;28;20269;-39
2023/07/23 14:19:14;;;;;;;9.93;5.90;;;;;;;;;;5096588;28;20663;-39
2023/07/23 14:21:41;;;;;;;6.45;3.70;;;;;;;;;;5095999;28;20265;-39
2023/07/23 14:24:08;;;;;;;6.60;3.38;;;;;;;;;;5096926;28;20206;-41
2023/07/23 14:26:35;;;;;;;4.00;2.10;;;;;;;;;;5096643;28;20210;-40
2023/07/23 14:29:03;;;;;;;2.10;1.58;;;;;;;;;;5096858;28;20290;-42
2023/07/23 14:31:30;;;;;;;2.85;1.73;;;;;;;;;;5096583;28;20260;-40
2023/07/23 14:33:57;;;;;;;3.22;2.08;;;;;;;;;;5096841;28;20206;-40
2023/07/23 14:36:26;;;;;;;3.40;1.90;;;;;;;;;;5094895;28;20214;-41
2023/07/23 14:38:53;;;;;;;2.97;1.80;;;;;;;;;;5096305;28;20202;-40
2023/07/23 14:41:20;;;;;;;3.55;1.92;;;;;;;;;;5096933;28;20218;-42
2023/07/23 14:43:47;;;;;;;2.50;1.60;;;;;;;;;;5093641;28;20229;-40
2023/07/23 14:46:14;;;;;;;3.38;2.05;;;;;;;;;;5095408;28;20271;-40
2023/07/23 14:48:42;;;;;;;3.38;1.50;;;;;;;;;;5095500;28;20589;-40